createdAt,value
2022-10-31T00:01:26.839Z,25.00
2022-10-31T00:09:53.631Z,29.20
2022-10-31T00:13:29.172Z,31.50
2022-10-31T00:17:27.923Z,33.00
2022-10-31T00:21:27.634Z,30.80
2022-10-31T00:25:41.253Z,32.30
2022-10-31T00:29:39.616Z,33.00
2022-10-31T00:33:39.272Z,31.80
2022-10-31T00:37:38.096Z,32.90
2022-10-31T00:41:36.506Z,33.90
2022-10-31T00:45:34.809Z,26.10
2022-10-31T00:49:32.687Z,25.50
2022-10-31T00:53:30.710Z,24.80
2022-10-31T00:57:28.876Z,24.80
2022-10-31T01:01:27.536Z,26.90
2022-10-31T01:05:26.050Z,36.20
2022-10-31T01:09:24.505Z,25.00
2022-10-31T01:13:23.138Z,28.20
2022-10-31T01:17:21.993Z,29.90
2022-10-31T01:21:23.675Z,28.10
2022-10-31T01:25:22.006Z,25.50
2022-10-31T01:29:21.568Z,29.10
2022-10-31T01:33:22.694Z,29.40
2022-10-31T01:36:58.208Z,27.50
2022-10-31T01:40:56.922Z,30.40
2022-10-31T01:45:11.644Z,27.30
2022-10-31T01:49:35.199Z,30.30
2022-10-31T01:53:34.783Z,33.70
2022-10-31T01:57:34.491Z,31.70
2022-10-31T02:01:51.318Z,29.10
2022-10-31T02:06:07.948Z,30.60
2022-10-31T02:10:06.923Z,28.30
2022-10-31T02:14:05.783Z,26.10
2022-10-31T02:18:06.058Z,28.00
2022-10-31T02:22:12.103Z,34.90
2022-10-31T02:26:48.263Z,30.10
2022-10-31T02:30:50.544Z,31.10
2022-10-31T02:34:54.214Z,30.80
2022-10-31T02:39:13.097Z,31.30
2022-10-31T02:43:36.447Z,32.10
2022-10-31T02:47:43.064Z,33.90
2022-10-31T02:51:41.447Z,36.50
2022-10-31T02:55:39.775Z,31.50
2022-10-31T02:59:43.774Z,34.50
2022-10-31T03:03:45.031Z,34.80
2022-10-31T03:07:49.573Z,30.90
2022-10-31T03:12:08.398Z,34.60
2022-10-31T03:16:50.573Z,36.80
2022-10-31T03:21:11.373Z,36.60
2022-10-31T03:25:24.494Z,31.70
2022-10-31T03:29:31.057Z,33.50
2022-10-31T03:33:32.990Z,35.70
2022-10-31T03:37:34.041Z,36.00
2022-10-31T03:41:37.123Z,37.80
2022-10-31T03:45:40.584Z,36.60
2022-10-31T03:49:39.531Z,36.90
2022-10-31T03:54:01.861Z,31.00
2022-10-31T03:58:39.418Z,30.10
2022-10-31T04:02:42.884Z,32.70
2022-10-31T04:06:44.293Z,36.50
2022-10-31T04:10:45.181Z,32.90
2022-10-31T04:14:47.235Z,32.10
2022-10-31T04:18:46.243Z,31.50
2022-10-31T04:22:44.825Z,34.00
2022-10-31T04:26:43.233Z,36.50
2022-10-31T04:30:41.326Z,35.00
2022-10-31T04:34:39.592Z,28.90
2022-10-31T04:38:38.583Z,31.40
2022-10-31T04:43:01.960Z,30.00
2022-10-31T04:47:00.963Z,33.70
2022-10-31T04:51:00.807Z,32.20
2022-10-31T04:54:59.309Z,35.10
2022-10-31T04:59:16.792Z,35.00
2022-10-31T05:03:22.219Z,31.30
2022-10-31T05:07:20.429Z,37.00
2022-10-31T05:11:18.333Z,38.70
2022-10-31T05:15:17.493Z,34.20
2022-10-31T05:24:22.883Z,36.80
2022-10-31T05:28:21.345Z,38.20
2022-10-31T05:32:19.424Z,42.20
2022-10-31T05:36:40.463Z,36.30
2022-10-31T05:40:48.264Z,43.10
2022-10-31T05:44:46.834Z,42.00
2022-10-31T05:49:05.565Z,43.90
2022-10-31T05:53:24.868Z,33.00
2022-10-31T05:57:00.687Z,42.30
2022-10-31T06:00:58.944Z,49.60
2022-10-31T06:04:57.610Z,46.80
2022-10-31T06:08:57.668Z,44.00
2022-10-31T06:12:56.828Z,46.20
2022-10-31T06:17:21.466Z,43.50
2022-10-31T06:21:19.495Z,46.50
2022-10-31T06:25:19.705Z,46.60
2022-10-31T06:29:21.398Z,47.30
2022-10-31T06:33:42.997Z,44.30
2022-10-31T06:37:43.396Z,48.70
2022-10-31T06:41:55.509Z,47.20
2022-10-31T06:45:54.132Z,51.30
2022-10-31T06:50:04.366Z,45.00
2022-10-31T06:54:02.709Z,43.80
2022-10-31T06:58:03.267Z,43.40
2022-10-31T07:02:03.454Z,40.40
2022-10-31T07:06:01.758Z,40.00
2022-10-31T07:10:00.606Z,39.20
2022-10-31T07:14:22.216Z,38.40
2022-10-31T07:18:35.838Z,37.60
2022-10-31T07:22:38.861Z,45.50
2022-10-31T07:26:53.298Z,36.90
2022-10-31T07:30:56.733Z,40.50
2022-10-31T07:39:33.977Z,45.90
2022-10-31T07:43:32.898Z,42.20
2022-10-31T07:48:11.364Z,51.40
2022-10-31T07:52:30.703Z,50.50
2022-10-31T07:56:48.394Z,30.80
2022-10-31T08:01:01.385Z,53.00
2022-10-31T08:05:06.045Z,53.90
2022-10-31T08:09:37.337Z,50.40
2022-10-31T08:13:44.377Z,49.70
2022-10-31T08:17:46.356Z,47.20
2022-10-31T08:21:59.485Z,43.80
2022-10-31T08:26:11.705Z,51.80
2022-10-31T08:30:10.950Z,53.40
2022-10-31T08:34:11.128Z,56.30
2022-10-31T08:38:28.584Z,54.30
2022-10-31T08:42:27.120Z,50.40
2022-10-31T08:46:25.644Z,55.40
2022-10-31T08:54:40.013Z,49.20
2022-10-31T08:59:11.298Z,56.90
2022-10-31T09:03:34.544Z,57.30
2022-10-31T09:07:33.433Z,57.40
2022-10-31T09:11:34.109Z,51.70
2022-10-31T09:15:10.466Z,60.50
2022-10-31T09:19:16.077Z,52.80
2022-10-31T09:23:19.917Z,54.30
2022-10-31T09:27:18.550Z,47.70
2022-10-31T09:31:19.554Z,52.10
2022-10-31T09:35:48.089Z,46.20
2022-10-31T09:39:48.357Z,49.70
2022-10-31T09:44:23.397Z,45.90
2022-10-31T09:48:18.837Z,48.80
2022-10-31T09:53:04.874Z,47.70
2022-10-31T09:57:07.130Z,48.40
2022-10-31T10:01:07.164Z,42.90
2022-10-31T10:05:28.840Z,40.30
2022-10-31T10:09:30.566Z,39.40
2022-10-31T10:14:05.646Z,42.40
2022-10-31T10:18:11.016Z,41.90
2022-10-31T10:22:13.565Z,40.40
2022-10-31T10:26:19.205Z,43.40
2022-10-31T10:30:28.373Z,37.90
2022-10-31T10:34:38.565Z,42.60
2022-10-31T10:38:51.264Z,40.00
2022-10-31T10:43:28.184Z,41.60
2022-10-31T10:47:38.675Z,36.60
2022-10-31T10:56:29.378Z,38.40
2022-10-31T11:00:35.932Z,39.10
2022-10-31T11:04:37.039Z,40.70
2022-10-31T11:08:37.042Z,42.40
2022-10-31T11:13:21.511Z,40.80
2022-10-31T11:17:41.811Z,46.40
2022-10-31T11:21:40.092Z,43.30
2022-10-31T11:26:04.002Z,41.90
2022-10-31T11:34:34.166Z,38.60
2022-10-31T11:38:42.332Z,42.90
2022-10-31T11:42:42.781Z,43.00
2022-10-31T11:47:00.153Z,43.10
2022-10-31T11:51:00.012Z,41.90
2022-10-31T11:55:04.048Z,43.30
2022-10-31T11:58:36.014Z,41.70
2022-10-31T12:02:34.864Z,45.70
2022-10-31T12:06:38.795Z,46.50
2022-10-31T12:11:04.926Z,43.80
2022-10-31T12:15:22.268Z,45.90
2022-10-31T12:19:39.455Z,43.80
2022-10-31T12:23:49.635Z,47.00
2022-10-31T12:28:10.790Z,51.20
2022-10-31T12:32:30.300Z,50.30
2022-10-31T12:36:51.129Z,51.50
2022-10-31T12:41:09.518Z,52.00
2022-10-31T12:45:13.414Z,48.90
2022-10-31T12:49:53.835Z,51.40
2022-10-31T12:54:14.646Z,51.20
2022-10-31T12:58:37.988Z,50.20
2022-10-31T13:02:54.889Z,50.10
2022-10-31T13:07:03.397Z,52.70
2022-10-31T13:11:19.668Z,47.70
2022-10-31T13:15:40.428Z,51.70
2022-10-31T13:19:46.329Z,48.20
2022-10-31T13:23:51.776Z,49.90
2022-10-31T13:28:30.949Z,56.30
2022-10-31T13:32:50.110Z,53.40
2022-10-31T13:37:18.775Z,51.90
2022-10-31T13:41:34.761Z,54.60
2022-10-31T13:45:55.390Z,53.10
2022-10-31T13:50:07.112Z,46.80
2022-10-31T13:54:23.234Z,53.80
2022-10-31T13:58:30.927Z,53.40
2022-10-31T14:02:36.957Z,54.20
2022-10-31T14:06:39.223Z,50.20
2022-10-31T14:10:48.077Z,50.60
2022-10-31T14:15:20.118Z,48.90
2022-10-31T14:19:21.070Z,49.30
2022-10-31T14:23:31.515Z,53.50
2022-10-31T14:27:29.805Z,54.00
2022-10-31T14:31:42.603Z,54.70
2022-10-31T14:36:42.759Z,54.70
2022-10-31T14:41:40.998Z,50.00
2022-10-31T14:45:03.845Z,51.80
2022-10-31T14:49:24.317Z,49.00
2022-10-31T14:53:29.335Z,63.10
2022-10-31T14:58:06.021Z,50.30
2022-10-31T15:02:35.772Z,52.20
2022-10-31T15:06:43.755Z,50.70
2022-10-31T15:10:47.078Z,42.70
2022-10-31T15:14:44.718Z,52.60
2022-10-31T15:19:05.562Z,37.60
2022-10-31T15:23:03.806Z,37.50
2022-10-31T15:27:05.121Z,32.40
2022-10-31T15:31:22.842Z,32.40
2022-10-31T15:35:26.956Z,36.00
2022-10-31T15:39:25.408Z,31.30
2022-10-31T15:43:24.296Z,38.70
2022-10-31T15:47:27.363Z,31.60
2022-10-31T15:51:32.823Z,34.10
2022-10-31T15:56:01.777Z,32.90
2022-10-31T16:00:28.543Z,34.50
2022-10-31T16:04:50.782Z,28.60
2022-10-31T16:09:05.059Z,32.60
2022-10-31T16:13:17.356Z,32.00
2022-10-31T16:17:17.856Z,31.00
2022-10-31T16:21:36.599Z,36.40
2022-10-31T16:25:39.474Z,29.30
2022-10-31T16:29:40.917Z,27.50
2022-10-31T16:33:41.602Z,29.70
2022-10-31T16:37:55.074Z,26.40
2022-10-31T16:41:58.411Z,31.00
2022-10-31T16:45:57.458Z,31.50
2022-10-31T16:50:01.171Z,30.90
2022-10-31T16:54:00.488Z,34.80
2022-10-31T16:58:01.321Z,29.10
2022-10-31T17:02:01.466Z,33.80
2022-10-31T17:06:01.005Z,33.10
2022-10-31T17:10:00.009Z,32.60
2022-10-31T17:13:59.229Z,32.10
2022-10-31T17:17:58.055Z,29.20
2022-10-31T17:21:56.602Z,30.70
2022-10-31T17:25:56.165Z,28.10
2022-10-31T17:29:54.791Z,27.70
2022-10-31T17:34:01.797Z,30.20
2022-10-31T17:38:02.598Z,32.60
2022-10-31T17:42:01.270Z,30.70
2022-10-31T17:46:00.979Z,31.30
2022-10-31T17:49:58.863Z,30.80
2022-10-31T17:53:58.513Z,30.10
2022-10-31T17:57:57.095Z,30.20
2022-10-31T18:01:55.727Z,28.40
2022-10-31T18:05:59.288Z,33.90
2022-10-31T18:09:58.036Z,29.30
2022-10-31T18:13:58.162Z,28.60
2022-10-31T18:17:56.315Z,25.20
2022-10-31T18:21:54.915Z,23.90
2022-10-31T18:25:54.689Z,30.30
2022-10-31T18:29:53.793Z,27.30
2022-10-31T18:34:05.956Z,28.70
2022-10-31T18:38:06.435Z,29.20
2022-10-31T18:42:05.497Z,27.30
2022-10-31T18:46:06.909Z,28.80
2022-10-31T18:50:06.423Z,28.30
2022-10-31T18:54:06.606Z,27.50
2022-10-31T18:58:06.473Z,24.50
2022-10-31T19:02:15.407Z,28.30
2022-10-31T19:06:15.525Z,29.00
2022-10-31T19:10:14.070Z,27.30
2022-10-31T19:14:15.157Z,25.00
2022-10-31T19:18:15.449Z,18.00
2022-10-31T19:21:51.877Z,17.30
2022-10-31T19:25:50.239Z,15.70
2022-10-31T19:29:49.255Z,11.80
2022-10-31T19:33:48.309Z,12.10
2022-10-31T19:38:00.827Z,12.70
2022-10-31T19:41:59.882Z,13.40
2022-10-31T19:46:22.357Z,11.00
2022-10-31T19:50:32.121Z,11.00
2022-10-31T19:54:32.207Z,8.20
2022-10-31T19:58:33.029Z,8.50
2022-10-31T20:02:45.549Z,7.40
2022-10-31T20:06:57.689Z,7.80
2022-10-31T20:10:57.256Z,7.30
2022-10-31T20:14:56.310Z,7.20
2022-10-31T20:18:56.821Z,7.10
2022-10-31T20:22:55.399Z,7.70
2022-10-31T20:26:54.117Z,9.30
2022-10-31T20:31:18.515Z,10.60
2022-10-31T20:35:17.757Z,13.90
2022-10-31T20:39:16.548Z,12.60
2022-10-31T20:43:16.743Z,10.60
2022-10-31T20:47:15.147Z,8.70
2022-10-31T20:55:15.871Z,11.00
2022-10-31T20:59:15.469Z,10.10
2022-10-31T21:03:27.617Z,12.90
2022-10-31T21:07:26.498Z,11.90
2022-10-31T21:11:27.353Z,12.10
2022-10-31T21:15:39.651Z,12.40
2022-10-31T21:19:37.969Z,14.00
2022-10-31T21:23:37.198Z,12.50
2022-10-31T21:27:35.704Z,12.90
2022-10-31T21:31:36.328Z,12.00
2022-10-31T21:35:35.030Z,12.40
2022-10-31T21:39:33.929Z,12.30
2022-10-31T21:43:36.289Z,11.00
2022-10-31T21:47:34.959Z,18.40
2022-10-31T21:51:36.515Z,11.50
2022-10-31T21:55:34.419Z,11.60
2022-10-31T21:59:32.929Z,13.50
2022-10-31T22:03:45.256Z,10.50
2022-10-31T22:07:43.992Z,12.40
2022-10-31T22:11:43.723Z,12.20
2022-10-31T22:15:41.723Z,14.00
2022-10-31T22:19:54.682Z,13.70
2022-10-31T22:24:01.894Z,15.40
2022-10-31T22:28:08.097Z,13.10
2022-10-31T22:32:06.785Z,13.20
2022-10-31T22:36:09.070Z,14.20
2022-10-31T22:40:08.542Z,13.30
2022-10-31T22:44:06.748Z,13.40
2022-10-31T22:48:05.629Z,12.50
2022-10-31T22:52:19.932Z,12.90
2022-10-31T22:56:21.649Z,11.30
2022-10-31T23:00:24.155Z,14.30
2022-10-31T23:03:58.688Z,17.80
2022-10-31T23:07:56.889Z,15.70
2022-10-31T23:12:15.436Z,15.90
2022-10-31T23:16:14.350Z,13.40
2022-10-31T23:20:12.516Z,15.60
2022-10-31T23:24:12.416Z,18.10
2022-10-31T23:28:11.000Z,17.80
2022-10-31T23:32:35.530Z,16.30
2022-10-31T23:36:48.571Z,17.80
2022-10-31T23:41:00.759Z,18.20
2022-10-31T23:45:12.475Z,19.70
2022-10-31T23:49:24.898Z,18.10
2022-10-31T23:53:23.743Z,17.90
2022-10-31T23:57:22.137Z,18.10
